Time;durP1;ratioP1;P1;durP2;ratioP2;P2;SDS_P1;SDS_P2;PMS_P1;PMS_P2;Temp;Humidity;BMP_temperature;BMP_pressure;BME280_temperature;BME280_humidity;BME280_pressure;Samples;Min_cycle;Max_cycle;Signal;HPM_P1;HPM_P2
2023/10/07 00:02:16;;;;;;;5.27;3.50;;;;;;;;;;5119665;27;20203;-75
2023/10/07 00:04:44;;;;;;;7.70;4.10;;;;;;;;;;5112579;27;20204;-74
2023/10/07 00:07:14;;;;;;;5.50;3.27;;;;;;;;;;5109466;28;20589;-75
2023/10/07 00:09:43;;;;;;;5.07;3.67;;;;;;;;;;5100773;28;20689;-74
2023/10/07 00:12:14;;;;;;;6.20;3.43;;;;;;;;;;5098619;28;20193;-76
2023/10/07 00:14:42;;;;;;;5.47;3.43;;;;;;;;;;5096319;28;20220;-77
2023/10/07 00:17:16;;;;;;;5.40;3.47;;;;;;;;;;5092876;28;20231;-77
2023/10/07 00:19:45;;;;;;;6.67;3.80;;;;;;;;;;5102112;28;20250;-76
2023/10/07 00:22:14;;;;;;;5.30;3.20;;;;;;;;;;5109113;27;20213;-76
2023/10/07 00:24:48;;;;;;;7.43;3.67;;;;;;;;;;5069007;28;20204;-76
2023/10/07 00:27:30;;;;;;;7.47;3.97;;;;;;;;;;5089948;28;20221;-76
2023/10/07 00:30:00;;;;;;;6.17;3.30;;;;;;;;;;5092849;27;20684;-77
2023/10/07 00:32:28;;;;;;;7.10;3.83;;;;;;;;;;5095347;28;20201;-77
2023/10/07 00:34:59;;;;;;;7.10;4.13;;;;;;;;;;5100169;28;20319;-75
2023/10/07 00:37:28;;;;;;;7.23;3.80;;;;;;;;;;5095675;27;20300;-74
2023/10/07 00:40:00;;;;;;;10.20;4.80;;;;;;;;;;5092986;28;20315;-76
2023/10/07 00:42:28;;;;;;;6.73;4.50;;;;;;;;;;5090611;28;20196;-75
2023/10/07 00:44:56;;;;;;;9.60;4.33;;;;;;;;;;5090521;28;20205;-75
2023/10/07 00:47:26;;;;;;;7.47;4.30;;;;;;;;;;5098897;28;20228;-75
2023/10/07 00:49:54;;;;;;;6.90;4.30;;;;;;;;;;5096510;28;20288;-76
2023/10/07 00:52:40;;;;;;;6.27;4.30;;;;;;;;;;5095787;28;20208;-76
2023/10/07 00:55:09;;;;;;;7.30;4.20;;;;;;;;;;5078578;28;20196;-75
2023/10/07 00:57:37;;;;;;;7.70;3.90;;;;;;;;;;5098573;28;20239;-75
2023/10/07 01:00:29;;;;;;;6.90;4.27;;;;;;;;;;5087360;28;20208;-76
2023/10/07 01:05:53;;;;;;;14.50;6.90;;;;;;;;;;5092032;28;20232;-75
2023/10/07 01:08:27;;;;;;;32.17;14.37;;;;;;;;;;5092546;27;20228;-76
2023/10/07 01:11:06;;;;;;;23.20;10.43;;;;;;;;;;5097456;27;20200;-76
2023/10/07 01:13:48;;;;;;;10.23;5.67;;;;;;;;;;5093758;28;20200;-74
2023/10/07 01:16:20;;;;;;;14.20;7.20;;;;;;;;;;5100848;27;20248;-74
2023/10/07 01:18:47;;;;;;;10.93;5.70;;;;;;;;;;5092987;28;20227;-73
2023/10/07 01:21:30;;;;;;;11.07;5.70;;;;;;;;;;5084370;28;20221;-74
2023/10/07 01:23:58;;;;;;;12.37;5.50;;;;;;;;;;5095037;27;20249;-74
2023/10/07 01:26:33;;;;;;;8.33;4.70;;;;;;;;;;5092425;28;20226;-74
2023/10/07 01:29:16;;;;;;;6.87;4.10;;;;;;;;;;5083802;28;20341;-78
2023/10/07 01:32:19;;;;;;;6.17;4.20;;;;;;;;;;5097651;28;20224;-78
2023/10/07 01:34:38;;;;;;;8.93;5.70;;;;;;;;;;5091405;28;20196;-76
2023/10/07 01:37:07;;;;;;;7.40;4.57;;;;;;;;;;5100106;28;20242;-75
2023/10/07 01:39:40;;;;;;;8.33;4.03;;;;;;;;;;5096791;28;20202;-75
2023/10/07 01:42:20;;;;;;;8.20;4.50;;;;;;;;;;5125691;27;20187;-75
2023/10/07 01:44:49;;;;;;;6.53;4.00;;;;;;;;;;5122116;27;20200;-74
2023/10/07 01:47:23;;;;;;;6.80;4.40;;;;;;;;;;5108278;27;20244;-75
2023/10/07 01:49:53;;;;;;;8.27;4.40;;;;;;;;;;5100928;28;20300;-77
2023/10/07 01:52:26;;;;;;;8.63;4.63;;;;;;;;;;5098608;28;20227;-76
2023/10/07 01:54:55;;;;;;;11.30;6.20;;;;;;;;;;5095991;28;20205;-77
2023/10/07 01:57:23;;;;;;;10.97;5.33;;;;;;;;;;5094659;28;20314;-76
2023/10/07 01:59:52;;;;;;;7.07;4.00;;;;;;;;;;5097043;28;20344;-76
2023/10/07 02:02:25;;;;;;;7.47;4.83;;;;;;;;;;5095309;28;20227;-77
2023/10/07 02:04:56;;;;;;;5.57;3.67;;;;;;;;;;5092449;28;20694;-76
2023/10/07 02:07:24;;;;;;;7.57;3.97;;;;;;;;;;5096210;28;20230;-77
2023/10/07 02:09:54;;;;;;;6.00;3.80;;;;;;;;;;5091737;28;20241;-79
2023/10/07 02:12:24;;;;;;;5.70;3.70;;;;;;;;;;5073517;28;20566;-78
2023/10/07 02:14:52;;;;;;;7.07;4.20;;;;;;;;;;5091322;28;20208;-77
2023/10/07 02:17:25;;;;;;;7.33;4.63;;;;;;;;;;5091826;28;20285;-77
2023/10/07 02:19:53;;;;;;;9.57;6.03;;;;;;;;;;5100842;28;20659;-77
2023/10/07 02:22:27;;;;;;;8.63;5.30;;;;;;;;;;5103990;28;20235;-77
2023/10/07 02:25:03;;;;;;;9.53;4.97;;;;;;;;;;5101488;28;20427;-77
2023/10/07 02:27:41;;;;;;;8.07;4.63;;;;;;;;;;5108580;28;20224;-77
2023/10/07 02:30:19;;;;;;;7.90;4.63;;;;;;;;;;5099225;27;22225;-77
2023/10/07 02:32:46;;;;;;;6.33;4.40;;;;;;;;;;5103711;28;20238;-78
2023/10/07 02:35:19;;;;;;;8.37;4.60;;;;;;;;;;5105996;28;20196;-77
2023/10/07 02:37:49;;;;;;;8.57;4.47;;;;;;;;;;5096874;27;20219;-75
2023/10/07 02:47:11;;;;;;;6.97;3.80;;;;;;;;;;5098875;27;20789;-77
2023/10/07 02:50:07;;;;;;;8.30;4.27;;;;;;;;;;5104144;27;20283;-78
2023/10/07 02:52:36;;;;;;;6.00;3.83;;;;;;;;;;5099092;28;20622;-79
2023/10/07 02:57:47;;;;;;;7.73;3.67;;;;;;;;;;5101115;28;20310;-78
2023/10/07 03:00:16;;;;;;;5.97;3.80;;;;;;;;;;5089610;28;20192;-76
2023/10/07 03:06:07;;;;;;;6.73;3.70;;;;;;;;;;4990244;28;20462;-76
2023/10/07 03:11:39;;;;;;;8.50;5.60;;;;;;;;;;5070634;28;20690;-76
2023/10/07 03:14:12;;;;;;;10.83;5.53;;;;;;;;;;5109915;27;20814;-77
2023/10/07 03:16:46;;;;;;;8.53;5.13;;;;;;;;;;5095626;28;20223;-77
2023/10/07 03:19:20;;;;;;;7.87;4.57;;;;;;;;;;5099131;27;20214;-74
2023/10/07 03:25:18;;;;;;;7.87;4.47;;;;;;;;;;5102005;28;20241;-73
2023/10/07 03:27:50;;;;;;;7.60;4.90;;;;;;;;;;5088836;28;20217;-74
2023/10/07 03:33:51;;;;;;;5.90;4.00;;;;;;;;;;5092407;28;20234;-74
2023/10/07 03:36:48;;;;;;;9.27;4.33;;;;;;;;;;5078401;27;20212;-74
2023/10/07 03:45:56;;;;;;;8.87;4.60;;;;;;;;;;5095495;28;22068;-77
2023/10/07 03:48:24;;;;;;;5.97;3.90;;;;;;;;;;5095648;28;20224;-74
2023/10/07 03:51:13;;;;;;;7.87;4.20;;;;;;;;;;5097520;27;20217;-77
2023/10/07 03:53:45;;;;;;;7.77;4.53;;;;;;;;;;5094780;27;20197;-77
2023/10/07 03:56:13;;;;;;;8.03;4.43;;;;;;;;;;5093827;28;20223;-76
2023/10/07 03:58:44;;;;;;;9.87;4.60;;;;;;;;;;5094266;28;20200;-77
2023/10/07 04:01:11;;;;;;;6.90;4.17;;;;;;;;;;5098572;28;20218;-76
2023/10/07 04:03:40;;;;;;;7.57;4.60;;;;;;;;;;5082740;28;20253;-75
2023/10/07 04:06:09;;;;;;;6.77;3.80;;;;;;;;;;5093847;27;20225;-78
2023/10/07 04:08:36;;;;;;;6.23;4.23;;;;;;;;;;5098713;28;20587;-77
2023/10/07 04:11:06;;;;;;;7.87;4.60;;;;;;;;;;5097462;27;20257;-77
2023/10/07 04:13:34;;;;;;;6.60;3.77;;;;;;;;;;5099126;28;20245;-77
2023/10/07 04:16:02;;;;;;;7.67;4.17;;;;;;;;;;5095577;28;20296;-78
2023/10/07 04:18:40;;;;;;;7.57;4.93;;;;;;;;;;5092204;27;20819;-76
2023/10/07 04:21:07;;;;;;;19.97;10.43;;;;;;;;;;5109379;27;20659;-73
2023/10/07 04:23:34;;;;;;;17.73;9.77;;;;;;;;;;5108598;27;20203;-73
2023/10/07 04:26:11;;;;;;;10.40;5.43;;;;;;;;;;5101424;27;20289;-73
2023/10/07 04:28:39;;;;;;;7.73;5.20;;;;;;;;;;5103372;28;20213;-73
2023/10/07 04:31:10;;;;;;;10.53;6.00;;;;;;;;;;5108701;27;20254;-73
2023/10/07 04:33:40;;;;;;;12.80;7.93;;;;;;;;;;5106366;28;20553;-73
2023/10/07 04:36:13;;;;;;;11.13;7.47;;;;;;;;;;5101080;28;20301;-74
2023/10/07 04:38:53;;;;;;;8.03;4.80;;;;;;;;;;5102556;28;20201;-76
2023/10/07 04:43:59;;;;;;;10.87;5.53;;;;;;;;;;5097885;28;20638;-78
2023/10/07 04:46:30;;;;;;;7.73;5.60;;;;;;;;;;5089136;28;20707;-72
2023/10/07 04:49:12;;;;;;;7.20;4.57;;;;;;;;;;5097337;28;20224;-73
2023/10/07 04:54:11;;;;;;;7.87;4.50;;;;;;;;;;5097451;28;20196;-73
2023/10/07 04:56:39;;;;;;;8.57;5.03;;;;;;;;;;5081985;28;20220;-74
2023/10/07 04:59:09;;;;;;;5.47;3.80;;;;;;;;;;5096623;28;20319;-73
2023/10/07 05:01:41;;;;;;;7.43;4.17;;;;;;;;;;5102010;27;20219;-74
2023/10/07 05:04:09;;;;;;;6.60;3.70;;;;;;;;;;5103972;28;20254;-73
2023/10/07 05:06:40;;;;;;;9.50;5.27;;;;;;;;;;5100448;27;20231;-75
2023/10/07 05:09:18;;;;;;;12.10;6.23;;;;;;;;;;5089601;28;20243;-75
2023/10/07 05:11:49;;;;;;;10.33;5.90;;;;;;;;;;5100003;28;20229;-75
2023/10/07 05:14:22;;;;;;;9.90;6.03;;;;;;;;;;5103868;28;20200;-73
2023/10/07 05:16:51;;;;;;;11.60;5.80;;;;;;;;;;5094138;28;20303;-73
2023/10/07 05:19:22;;;;;;;10.13;5.80;;;;;;;;;;5095571;28;20262;-74
2023/10/07 05:22:14;;;;;;;11.17;6.77;;;;;;;;;;5097034;28;20646;-74
2023/10/07 05:24:46;;;;;;;12.87;7.07;;;;;;;;;;5089629;28;20227;-75
2023/10/07 05:27:13;;;;;;;10.80;6.73;;;;;;;;;;5091354;28;20284;-76
2023/10/07 05:29:43;;;;;;;9.27;5.73;;;;;;;;;;5074456;28;20269;-75
2023/10/07 05:32:11;;;;;;;8.53;5.30;;;;;;;;;;5087035;28;20212;-75
2023/10/07 05:34:38;;;;;;;6.90;4.27;;;;;;;;;;5090343;28;20212;-76
2023/10/07 05:37:11;;;;;;;7.57;4.73;;;;;;;;;;5094654;27;20228;-75
2023/10/07 05:39:42;;;;;;;9.20;5.30;;;;;;;;;;5079630;28;20615;-74
2023/10/07 05:42:13;;;;;;;7.17;4.87;;;;;;;;;;5079364;28;20230;-75
2023/10/07 05:44:48;;;;;;;10.43;5.23;;;;;;;;;;5079563;28;20212;-74
2023/10/07 05:47:16;;;;;;;7.30;4.17;;;;;;;;;;5096062;28;20228;-75
2023/10/07 05:49:43;;;;;;;6.37;4.13;;;;;;;;;;5101234;28;20856;-75
2023/10/07 05:52:18;;;;;;;8.03;4.40;;;;;;;;;;5076014;28;20664;-77
2023/10/07 05:54:45;;;;;;;7.73;4.93;;;;;;;;;;5085211;28;20224;-75
2023/10/07 05:57:34;;;;;;;8.17;4.37;;;;;;;;;;5092201;28;20220;-76
2023/10/07 06:00:21;;;;;;;8.60;3.93;;;;;;;;;;5102673;27;20554;-75
2023/10/07 06:02:55;;;;;;;9.00;4.00;;;;;;;;;;5098763;28;20200;-78
2023/10/07 06:05:27;;;;;;;10.20;3.70;;;;;;;;;;5101885;28;21563;-73
2023/10/07 06:07:57;;;;;;;6.10;3.83;;;;;;;;;;5099061;28;20216;-76
2023/10/07 06:10:38;;;;;;;7.20;3.80;;;;;;;;;;5092077;28;20293;-76
2023/10/07 06:13:08;;;;;;;5.27;3.67;;;;;;;;;;5092221;28;20200;-74
2023/10/07 06:15:39;;;;;;;7.40;4.00;;;;;;;;;;5098335;28;20303;-76
2023/10/07 06:18:07;;;;;;;9.30;6.00;;;;;;;;;;5087662;28;20291;-75
2023/10/07 06:20:38;;;;;;;6.20;4.23;;;;;;;;;;5092578;28;20219;-74
2023/10/07 06:26:31;;;;;;;5.70;3.30;;;;;;;;;;5100444;28;20212;-78
2023/10/07 06:29:07;;;;;;;5.37;3.60;;;;;;;;;;5101080;28;20232;-77
2023/10/07 06:31:35;;;;;;;5.57;3.80;;;;;;;;;;5095728;28;20216;-80
2023/10/07 06:34:11;;;;;;;5.80;4.03;;;;;;;;;;5098469;28;20197;-79
2023/10/07 06:36:40;;;;;;;8.37;4.07;;;;;;;;;;5082281;28;20239;-74
2023/10/07 06:39:08;;;;;;;6.57;4.00;;;;;;;;;;5089388;28;20208;-73
2023/10/07 06:41:35;;;;;;;8.07;3.87;;;;;;;;;;5103030;28;20672;-74
2023/10/07 06:44:03;;;;;;;5.60;3.70;;;;;;;;;;5102564;28;20612;-75
2023/10/07 06:46:41;;;;;;;6.63;3.40;;;;;;;;;;5076173;28;20422;-77
2023/10/07 06:49:18;;;;;;;7.57;3.70;;;;;;;;;;5083813;28;20587;-77
2023/10/07 06:52:03;;;;;;;6.27;3.73;;;;;;;;;;5089697;28;20196;-79
2023/10/07 06:54:34;;;;;;;5.63;3.63;;;;;;;;;;5089333;28;20205;-79
2023/10/07 06:57:04;;;;;;;10.40;4.67;;;;;;;;;;5089592;28;20277;-80
2023/10/07 06:59:31;;;;;;;7.17;4.10;;;;;;;;;;5092290;28;20208;-78
2023/10/07 07:02:11;;;;;;;7.53;4.53;;;;;;;;;;5089063;28;20209;-79
2023/10/07 07:04:41;;;;;;;8.07;4.47;;;;;;;;;;5093543;28;20204;-79
2023/10/07 07:07:11;;;;;;;6.90;4.47;;;;;;;;;;5095394;28;20703;-78
2023/10/07 07:12:27;;;;;;;6.07;3.80;;;;;;;;;;5098772;27;20231;-78
2023/10/07 07:15:04;;;;;;;4.83;3.30;;;;;;;;;;5086680;28;20610;-77
2023/10/07 07:17:37;;;;;;;7.40;3.80;;;;;;;;;;5092174;28;20226;-77
2023/10/07 07:22:42;;;;;;;8.20;4.00;;;;;;;;;;5093715;28;20658;-78
2023/10/07 07:25:11;;;;;;;6.10;3.53;;;;;;;;;;5093493;27;20840;-80
2023/10/07 07:27:45;;;;;;;8.27;4.47;;;;;;;;;;5098600;28;20313;-78
2023/10/07 07:30:29;;;;;;;6.40;3.47;;;;;;;;;;5085588;28;20845;-79
2023/10/07 07:33:07;;;;;;;7.23;3.47;;;;;;;;;;5086983;28;20243;-75
2023/10/07 07:35:41;;;;;;;6.83;3.33;;;;;;;;;;5082874;27;20208;-75
2023/10/07 07:38:54;;;;;;;5.93;3.67;;;;;;;;;;5100586;28;21005;-76
2023/10/07 07:41:26;;;;;;;5.40;3.33;;;;;;;;;;5076359;28;20462;-79
2023/10/07 07:43:53;;;;;;;5.40;3.47;;;;;;;;;;5091786;28;20217;-78
2023/10/07 07:46:26;;;;;;;3.43;2.80;;;;;;;;;;5094651;27;20231;-78
2023/10/07 07:48:54;;;;;;;6.80;3.23;;;;;;;;;;5099589;28;20216;-76
2023/10/07 07:51:25;;;;;;;4.23;3.17;;;;;;;;;;5113361;28;20204;-76
2023/10/07 07:53:53;;;;;;;4.93;3.03;;;;;;;;;;5107926;27;20199;-74
2023/10/07 07:56:22;;;;;;;5.90;3.20;;;;;;;;;;5106741;28;20224;-76
2023/10/07 07:58:49;;;;;;;4.50;3.00;;;;;;;;;;5086017;28;20196;-77
2023/10/07 08:01:28;;;;;;;5.47;3.20;;;;;;;;;;5074334;28;20229;-78
2023/10/07 08:03:59;;;;;;;6.70;3.30;;;;;;;;;;5092586;28;20205;-76
2023/10/07 08:06:27;;;;;;;8.27;3.23;;;;;;;;;;5097254;28;20235;-79
2023/10/07 08:08:54;;;;;;;6.97;3.23;;;;;;;;;;5092432;28;20606;-78
2023/10/07 08:11:22;;;;;;;6.40;2.80;;;;;;;;;;5099250;28;20285;-77
2023/10/07 08:13:50;;;;;;;6.50;3.03;;;;;;;;;;5087302;28;20203;-75
2023/10/07 08:16:20;;;;;;;6.87;2.93;;;;;;;;;;5073854;28;20704;-77
2023/10/07 08:18:54;;;;;;;8.43;2.93;;;;;;;;;;5081406;28;20219;-76
2023/10/07 08:21:29;;;;;;;5.00;2.70;;;;;;;;;;5080364;28;20667;-76
2023/10/07 08:24:01;;;;;;;5.82;3.28;;;;;;;;;;5092404;28;20286;-77
2023/10/07 08:26:34;;;;;;;5.03;3.13;;;;;;;;;;5088749;28;20228;-78
2023/10/07 08:29:02;;;;;;;4.15;2.88;;;;;;;;;;5099098;28;20225;-77
2023/10/07 08:31:38;;;;;;;5.25;2.80;;;;;;;;;;5094466;28;20596;-78
2023/10/07 08:36:43;;;;;;;5.78;3.08;;;;;;;;;;5088304;28;20359;-76
2023/10/07 08:39:11;;;;;;;4.90;3.03;;;;;;;;;;5071682;28;20286;-76
2023/10/07 08:41:40;;;;;;;6.13;3.22;;;;;;;;;;5093883;28;21990;-74
2023/10/07 08:47:03;;;;;;;5.70;2.88;;;;;;;;;;5089932;28;20239;-76
2023/10/07 08:49:35;;;;;;;3.65;2.50;;;;;;;;;;5068148;28;20220;-77
2023/10/07 08:52:08;;;;;;;4.40;2.75;;;;;;;;;;5089833;28;20200;-75
2023/10/07 08:54:44;;;;;;;8.68;2.40;;;;;;;;;;5087546;28;20208;-78
2023/10/07 08:57:16;;;;;;;3.80;2.35;;;;;;;;;;5100970;28;20225;-76
2023/10/07 08:59:49;;;;;;;3.35;2.20;;;;;;;;;;5084607;27;20291;-76
2023/10/07 09:02:26;;;;;;;3.47;2.30;;;;;;;;;;5099217;28;20205;-75
2023/10/07 09:04:58;;;;;;;5.10;2.80;;;;;;;;;;5095651;27;20732;-76
2023/10/07 09:07:32;;;;;;;4.18;2.50;;;;;;;;;;5090132;28;20220;-75
2023/10/07 09:10:28;;;;;;;2.58;2.08;;;;;;;;;;5070933;28;20228;-78
2023/10/07 09:12:56;;;;;;;3.35;2.45;;;;;;;;;;5093736;28;20231;-76
2023/10/07 09:15:28;;;;;;;3.15;2.15;;;;;;;;;;5084176;28;20204;-74
2023/10/07 09:18:05;;;;;;;6.18;2.20;;;;;;;;;;5066289;28;20569;-76
2023/10/07 09:20:36;;;;;;;4.38;2.53;;;;;;;;;;5066178;28;20208;-77
2023/10/07 09:23:15;;;;;;;4.53;2.42;;;;;;;;;;5060564;28;20196;-77
2023/10/07 09:25:46;;;;;;;6.20;2.53;;;;;;;;;;5061035;28;20233;-76
2023/10/07 09:28:14;;;;;;;4.50;2.50;;;;;;;;;;5095829;27;20203;-75
2023/10/07 09:33:13;;;;;;;3.30;2.15;;;;;;;;;;5087676;28;20200;-79
2023/10/07 09:35:43;;;;;;;6.32;3.42;;;;;;;;;;5098333;28;20270;-76
2023/10/07 09:38:33;;;;;;;3.38;1.70;;;;;;;;;;5092325;28;20207;-77
2023/10/07 09:41:24;;;;;;;2.95;2.08;;;;;;;;;;5091200;28;20628;-75
2023/10/07 09:43:56;;;;;;;2.35;2.05;;;;;;;;;;5068019;28;20215;-75
2023/10/07 09:46:39;;;;;;;2.72;2.25;;;;;;;;;;5068398;28;20274;-77
2023/10/07 09:49:07;;;;;;;2.88;2.00;;;;;;;;;;5087488;28;20637;-75
2023/10/07 09:51:47;;;;;;;4.57;1.70;;;;;;;;;;5091415;28;20200;-75
2023/10/07 09:54:38;;;;;;;3.70;1.98;;;;;;;;;;5089475;28;20336;-75
2023/10/07 09:57:29;;;;;;;3.75;1.95;;;;;;;;;;5057639;28;20227;-76
2023/10/07 10:03:05;;;;;;;1.92;1.58;;;;;;;;;;5087113;28;20214;-79
2023/10/07 10:05:51;;;;;;;4.38;2.00;;;;;;;;;;5091238;28;20782;-78
2023/10/07 10:08:36;;;;;;;3.25;1.90;;;;;;;;;;5088604;28;20208;-75
2023/10/07 10:11:20;;;;;;;3.30;1.88;;;;;;;;;;5108037;28;20303;-78
2023/10/07 10:13:52;;;;;;;2.55;2.00;;;;;;;;;;5067173;28;20212;-77
2023/10/07 10:16:38;;;;;;;3.30;2.22;;;;;;;;;;5063002;28;20258;-78
2023/10/07 10:19:28;;;;;;;2.95;2.08;;;;;;;;;;5085735;28;20315;-76
2023/10/07 10:21:53;;;;;;;2.10;1.90;;;;;;;;;;5081679;28;20301;-76
2023/10/07 10:24:24;;;;;;;2.20;2.00;;;;;;;;;;5085747;28;20585;-76
2023/10/07 10:27:04;;;;;;;2.10;1.90;;;;;;;;;;5080156;28;20221;-76
2023/10/07 10:29:36;;;;;;;3.78;1.90;;;;;;;;;;5087528;28;20223;-76
2023/10/07 10:32:16;;;;;;;2.15;1.80;;;;;;;;;;5090433;28;20207;-75
2023/10/07 10:34:45;;;;;;;2.65;2.05;;;;;;;;;;5095065;28;20615;-76
2023/10/07 10:37:12;;;;;;;3.58;2.00;;;;;;;;;;5081434;28;20723;-76
2023/10/07 10:39:39;;;;;;;4.03;2.10;;;;;;;;;;5096605;28;20204;-77
2023/10/07 10:42:13;;;;;;;2.42;1.90;;;;;;;;;;5089489;28;20205;-75
2023/10/07 10:44:46;;;;;;;2.15;1.70;;;;;;;;;;5070118;28;20224;-76
2023/10/07 10:47:21;;;;;;;2.60;1.80;;;;;;;;;;5091183;28;20692;-76
2023/10/07 10:49:54;;;;;;;3.65;2.08;;;;;;;;;;5097273;27;20324;-76
2023/10/07 10:52:22;;;;;;;2.42;2.22;;;;;;;;;;5097939;28;20656;-77
2023/10/07 10:54:52;;;;;;;2.65;2.03;;;;;;;;;;5097805;28;20319;-76
2023/10/07 10:57:20;;;;;;;2.33;2.13;;;;;;;;;;5100604;27;20223;-76
2023/10/07 10:59:47;;;;;;;5.43;3.70;;;;;;;;;;5092470;27;20236;-77
2023/10/07 11:02:23;;;;;;;5.63;2.47;;;;;;;;;;5096298;27;23259;-77
2023/10/07 11:04:51;;;;;;;2.67;1.90;;;;;;;;;;5076091;28;20313;-76
2023/10/07 11:07:19;;;;;;;3.30;1.90;;;;;;;;;;5100630;28;20224;-78
2023/10/07 11:09:48;;;;;;;4.18;2.08;;;;;;;;;;5080634;28;20601;-77
2023/10/07 11:12:19;;;;;;;4.15;2.63;;;;;;;;;;5093405;27;20200;-76
2023/10/07 11:14:50;;;;;;;2.97;2.17;;;;;;;;;;5092752;28;20236;-76
2023/10/07 11:17:17;;;;;;;4.05;2.30;;;;;;;;;;5088280;28;20225;-77
2023/10/07 11:19:47;;;;;;;3.10;2.40;;;;;;;;;;5092255;28;20212;-76
2023/10/07 11:22:19;;;;;;;3.63;1.88;;;;;;;;;;5090550;28;20208;-77
2023/10/07 11:24:50;;;;;;;3.78;2.17;;;;;;;;;;5086739;28;20211;-76
2023/10/07 11:27:19;;;;;;;7.57;2.65;;;;;;;;;;5089649;28;20231;-77
2023/10/07 11:29:57;;;;;;;2.25;2.00;;;;;;;;;;5090101;27;20223;-77
2023/10/07 11:32:33;;;;;;;3.80;1.80;;;;;;;;;;5070110;28;23160;-79
2023/10/07 11:35:02;;;;;;;5.57;2.40;;;;;;;;;;5073027;28;20376;-78
2023/10/07 11:37:32;;;;;;;2.97;2.05;;;;;;;;;;5075340;28;20239;-78
2023/10/07 11:40:01;;;;;;;4.53;2.00;;;;;;;;;;5084534;28;20769;-77
2023/10/07 11:42:29;;;;;;;2.88;2.15;;;;;;;;;;5064767;28;20615;-76
2023/10/07 11:44:57;;;;;;;3.55;2.10;;;;;;;;;;5090942;28;21647;-77
2023/10/07 11:47:25;;;;;;;3.65;2.30;;;;;;;;;;5073856;28;20235;-78
2023/10/07 11:49:52;;;;;;;4.05;2.17;;;;;;;;;;5087288;28;20232;-76
2023/10/07 11:52:20;;;;;;;5.20;2.20;;;;;;;;;;5084163;28;20208;-78
2023/10/07 11:54:48;;;;;;;2.92;2.00;;;;;;;;;;5089949;28;20232;-78
2023/10/07 11:57:18;;;;;;;5.15;2.45;;;;;;;;;;5086802;28;20638;-78
2023/10/07 11:59:46;;;;;;;3.78;2.75;;;;;;;;;;5085904;28;20943;-78
2023/10/07 12:02:14;;;;;;;7.93;4.90;;;;;;;;;;5085853;28;20201;-78
2023/10/07 12:04:47;;;;;;;4.53;2.80;;;;;;;;;;5066346;28;20205;-78
2023/10/07 12:07:16;;;;;;;3.15;2.40;;;;;;;;;;5079610;28;20308;-77
2023/10/07 12:09:46;;;;;;;3.78;2.58;;;;;;;;;;5091474;28;20261;-77
2023/10/07 12:12:15;;;;;;;5.05;2.22;;;;;;;;;;5091847;28;22716;-78
2023/10/07 12:14:42;;;;;;;3.90;2.30;;;;;;;;;;5066334;28;20205;-77
2023/10/07 12:17:11;;;;;;;3.42;2.25;;;;;;;;;;5091899;28;20232;-77
2023/10/07 12:19:41;;;;;;;8.38;2.65;;;;;;;;;;5093435;27;20284;-77
2023/10/07 12:22:08;;;;;;;6.10;2.53;;;;;;;;;;5082489;28;20209;-77
2023/10/07 12:24:37;;;;;;;4.75;2.70;;;;;;;;;;5088051;28;20196;-75
2023/10/07 12:27:06;;;;;;;7.07;3.00;;;;;;;;;;5100990;28;20224;-75
2023/10/07 12:29:34;;;;;;;4.60;2.83;;;;;;;;;;5099231;28;20201;-76
2023/10/07 12:32:01;;;;;;;15.38;3.40;;;;;;;;;;5107292;28;20510;-75
2023/10/07 12:34:30;;;;;;;4.18;2.90;;;;;;;;;;5109506;27;20208;-76
2023/10/07 12:36:57;;;;;;;5.57;2.60;;;;;;;;;;5108341;27;20227;-74
2023/10/07 12:39:30;;;;;;;3.28;2.53;;;;;;;;;;5106224;27;20206;-77
2023/10/07 12:41:57;;;;;;;3.47;2.63;;;;;;;;;;5082033;28;20208;-76
2023/10/07 12:44:25;;;;;;;3.05;2.38;;;;;;;;;;5096868;28;20200;-76
2023/10/07 12:46:54;;;;;;;3.10;2.58;;;;;;;;;;5101717;28;20227;-77
2023/10/07 12:49:23;;;;;;;3.47;2.67;;;;;;;;;;5111266;27;20309;-77
2023/10/07 12:51:50;;;;;;;5.03;2.80;;;;;;;;;;5104169;27;20894;-76
2023/10/07 12:54:19;;;;;;;5.80;3.13;;;;;;;;;;5108869;27;20200;-75
2023/10/07 12:56:46;;;;;;;4.65;3.17;;;;;;;;;;5089226;28;20221;-77
2023/10/07 12:59:23;;;;;;;3.45;2.53;;;;;;;;;;5100597;28;20584;-78
2023/10/07 13:01:55;;;;;;;4.25;2.88;;;;;;;;;;5082339;28;20204;-77
2023/10/07 13:04:34;;;;;;;4.97;3.50;;;;;;;;;;5099119;27;20204;-78
2023/10/07 13:07:09;;;;;;;5.45;3.10;;;;;;;;;;5099946;28;20223;-78
2023/10/07 13:09:40;;;;;;;5.55;3.00;;;;;;;;;;5106467;28;20200;-78
2023/10/07 13:12:15;;;;;;;4.95;2.50;;;;;;;;;;5081009;28;20209;-76
2023/10/07 13:14:45;;;;;;;4.82;2.92;;;;;;;;;;5085899;27;20831;-76
2023/10/07 13:17:13;;;;;;;4.30;2.78;;;;;;;;;;5082483;27;20209;-77
2023/10/07 13:19:43;;;;;;;4.57;2.90;;;;;;;;;;5071907;28;20228;-77
2023/10/07 13:22:11;;;;;;;3.40;2.30;;;;;;;;;;5084397;28;20296;-78
2023/10/07 13:24:38;;;;;;;4.03;2.75;;;;;;;;;;5094693;28;20200;-76
2023/10/07 13:27:05;;;;;;;5.13;2.67;;;;;;;;;;5092200;28;20213;-80
2023/10/07 13:29:34;;;;;;;5.05;2.70;;;;;;;;;;5090893;28;20549;-77
2023/10/07 13:32:05;;;;;;;3.85;2.85;;;;;;;;;;5088407;28;20228;-78
2023/10/07 13:34:38;;;;;;;3.92;2.85;;;;;;;;;;5077399;28;20203;-75
2023/10/07 13:37:06;;;;;;;12.38;3.13;;;;;;;;;;5082869;28;20300;-80
2023/10/07 13:39:33;;;;;;;10.32;2.95;;;;;;;;;;5078295;28;20200;-79
2023/10/07 13:42:09;;;;;;;10.90;2.85;;;;;;;;;;5098395;28;20224;-76
2023/10/07 13:44:36;;;;;;;12.70;6.40;;;;;;;;;;5100244;27;20842;-79
2023/10/07 13:47:07;;;;;;;9.57;3.17;;;;;;;;;;5079300;28;20232;-77
2023/10/07 13:49:36;;;;;;;7.28;4.03;;;;;;;;;;5090373;28;20204;-76
2023/10/07 13:52:05;;;;;;;8.10;3.30;;;;;;;;;;5090189;28;20228;-78
2023/10/07 13:54:41;;;;;;;6.72;2.95;;;;;;;;;;5091817;28;20197;-77
2023/10/07 13:57:22;;;;;;;12.48;3.00;;;;;;;;;;5095181;27;20700;-77
2023/10/07 13:59:51;;;;;;;4.80;2.78;;;;;;;;;;5096927;28;20204;-77
2023/10/07 14:02:19;;;;;;;3.80;3.40;;;;;;;;;;5091674;28;20208;-77
2023/10/07 14:04:52;;;;;;;5.97;3.00;;;;;;;;;;5092835;28;20283;-77
2023/10/07 14:07:20;;;;;;;6.38;2.88;;;;;;;;;;5082858;28;20231;-78
2023/10/07 14:09:49;;;;;;;4.30;2.40;;;;;;;;;;5080690;28;23046;-79
2023/10/07 14:12:16;;;;;;;5.32;2.80;;;;;;;;;;5090830;28;20303;-75
2023/10/07 14:14:50;;;;;;;3.83;2.85;;;;;;;;;;5103120;28;20676;-76
2023/10/07 14:17:18;;;;;;;3.38;2.42;;;;;;;;;;5102053;28;20215;-76
2023/10/07 14:19:46;;;;;;;3.13;2.80;;;;;;;;;;5087000;28;20197;-75
2023/10/07 14:22:15;;;;;;;5.05;3.70;;;;;;;;;;5090438;28;20229;-77
2023/10/07 14:24:43;;;;;;;4.63;3.40;;;;;;;;;;5090637;28;20196;-76
2023/10/07 14:27:11;;;;;;;4.65;3.03;;;;;;;;;;5110291;28;20223;-77
2023/10/07 14:29:38;;;;;;;3.75;2.65;;;;;;;;;;5107104;28;20201;-75
2023/10/07 14:32:09;;;;;;;4.43;3.22;;;;;;;;;;5083525;28;20216;-74
2023/10/07 14:34:37;;;;;;;3.85;3.20;;;;;;;;;;5100315;28;20212;-77
2023/10/07 14:37:04;;;;;;;5.65;2.95;;;;;;;;;;5101150;27;20228;-76
2023/10/07 14:39:32;;;;;;;6.32;4.53;;;;;;;;;;5098366;28;20196;-77
2023/10/07 14:42:19;;;;;;;7.63;4.80;;;;;;;;;;5107227;28;20274;-76
2023/10/07 14:44:47;;;;;;;6.85;5.05;;;;;;;;;;5109176;27;20660;-75
2023/10/07 14:47:15;;;;;;;4.18;3.22;;;;;;;;;;5111068;28;20235;-76
2023/10/07 14:49:43;;;;;;;4.30;3.40;;;;;;;;;;5106837;27;20207;-77
2023/10/07 14:52:10;;;;;;;5.85;4.15;;;;;;;;;;5109753;27;20228;-74
2023/10/07 14:54:37;;;;;;;4.68;3.33;;;;;;;;;;5089086;28;20208;-76
2023/10/07 14:57:05;;;;;;;5.97;3.70;;;;;;;;;;5101584;27;20240;-76
2023/10/07 14:59:33;;;;;;;4.30;3.33;;;;;;;;;;5095505;28;20213;-75
2023/10/07 15:02:01;;;;;;;5.22;3.03;;;;;;;;;;5095366;28;20284;-74
2023/10/07 15:04:29;;;;;;;5.95;3.42;;;;;;;;;;5095126;28;20216;-75
2023/10/07 15:06:57;;;;;;;5.00;2.88;;;;;;;;;;5074889;28;20238;-79
2023/10/07 15:09:24;;;;;;;4.35;3.20;;;;;;;;;;5101909;28;20224;-77
2023/10/07 15:11:55;;;;;;;5.03;3.10;;;;;;;;;;5102769;28;20314;-77
2023/10/07 15:14:23;;;;;;;5.70;3.33;;;;;;;;;;5086214;28;20595;-79
2023/10/07 15:16:50;;;;;;;4.38;3.05;;;;;;;;;;5095494;28;20227;-78
2023/10/07 15:19:20;;;;;;;6.28;3.30;;;;;;;;;;5077496;28;20206;-78
2023/10/07 15:21:51;;;;;;;4.95;3.20;;;;;;;;;;5094313;28;20667;-80
2023/10/07 15:24:19;;;;;;;5.25;3.40;;;;;;;;;;5107478;27;20201;-76
2023/10/07 15:26:48;;;;;;;4.85;3.40;;;;;;;;;;5102317;27;20224;-76
2023/10/07 15:29:16;;;;;;;6.18;3.67;;;;;;;;;;5110129;27;20217;-75
2023/10/07 15:31:44;;;;;;;4.82;3.13;;;;;;;;;;5098255;28;20801;-74
2023/10/07 15:34:11;;;;;;;5.35;3.63;;;;;;;;;;5098180;28;20212;-74
2023/10/07 15:36:39;;;;;;;4.03;3.22;;;;;;;;;;5103812;28;20247;-78
2023/10/07 15:39:07;;;;;;;5.63;3.80;;;;;;;;;;5102401;28;20205;-79
2023/10/07 15:41:35;;;;;;;5.40;3.22;;;;;;;;;;5089083;28;20290;-79
2023/10/07 15:44:03;;;;;;;6.35;3.22;;;;;;;;;;5094140;28;20279;-78
2023/10/07 15:46:31;;;;;;;6.13;4.45;;;;;;;;;;5093686;28;20233;-81
2023/10/07 15:49:10;;;;;;;4.82;3.22;;;;;;;;;;5103374;28;20212;-78
2023/10/07 15:51:38;;;;;;;6.85;3.30;;;;;;;;;;5095379;28;20224;-79
2023/10/07 15:54:09;;;;;;;6.68;3.42;;;;;;;;;;5102440;28;20216;-78
2023/10/07 15:56:39;;;;;;;4.40;3.30;;;;;;;;;;5094013;28;20222;-72
2023/10/07 15:59:10;;;;;;;4.53;3.30;;;;;;;;;;5103615;27;20204;-79
2023/10/07 16:01:40;;;;;;;6.78;3.10;;;;;;;;;;5097006;28;20216;-77
2023/10/07 16:04:15;;;;;;;6.75;3.25;;;;;;;;;;5096879;27;20217;-78
2023/10/07 16:06:43;;;;;;;9.15;3.40;;;;;;;;;;5104029;27;20228;-77